createdAt,value
2022-09-27T14:07:27.446Z,16.40
2022-09-27T14:10:01.859Z,19.00
2022-09-27T14:12:37.550Z,20.50
2022-09-27T14:15:16.581Z,18.30
2022-09-27T14:17:46.278Z,19.40
2022-09-27T14:20:40.033Z,18.00
2022-09-27T14:23:37.641Z,20.50
2022-09-27T14:26:06.408Z,20.40
2022-09-27T14:28:41.888Z,22.30
2022-09-27T14:31:25.169Z,18.70
2022-09-27T14:34:13.433Z,19.40
2022-09-27T14:37:04.537Z,19.80
2022-09-27T14:39:38.453Z,19.80
2022-09-27T14:42:25.064Z,18.30
2022-09-27T14:44:55.948Z,23.10
2022-09-27T14:47:27.888Z,18.60
2022-09-27T14:50:01.888Z,17.10
2022-09-27T14:52:34.868Z,16.50
2022-09-27T14:55:08.483Z,15.70
2022-09-27T14:57:37.405Z,17.00
2022-09-27T15:00:23.329Z,14.90
2022-09-27T15:02:56.250Z,14.60
2022-09-27T15:05:30.981Z,16.60
2022-09-27T15:08:02.625Z,15.10
2022-09-27T15:10:35.277Z,14.40
2022-09-27T15:13:05.557Z,14.30
2022-09-27T15:15:40.184Z,14.00
2022-09-27T15:18:32.575Z,15.50
2022-09-27T15:21:01.554Z,17.30
2022-09-27T15:23:36.381Z,16.10
2022-09-27T15:26:17.254Z,17.60
2022-09-27T15:28:48.348Z,18.10
2022-09-27T15:31:17.501Z,18.90
2022-09-27T15:33:55.237Z,17.20
2022-09-27T15:36:50.338Z,17.70
2022-09-27T15:39:28.707Z,16.00
2022-09-27T15:42:17.693Z,18.00
2022-09-27T15:44:54.225Z,17.80
2022-09-27T15:47:35.109Z,18.30
2022-09-27T15:50:15.681Z,22.10
2022-09-27T15:52:53.088Z,16.00
2022-09-27T15:55:29.474Z,16.10
2022-09-27T15:58:05.409Z,16.50
2022-09-27T16:00:35.696Z,16.70
2022-09-27T16:03:04.503Z,17.30
2022-09-27T16:05:33.525Z,18.30
2022-09-27T16:08:01.987Z,17.30
2022-09-27T16:10:38.603Z,18.70
2022-09-27T16:13:06.928Z,18.20
2022-09-27T16:15:36.934Z,19.20
2022-09-27T16:18:05.659Z,20.10
2022-09-27T16:20:34.017Z,21.20
2022-09-27T16:23:02.608Z,19.10
2022-09-27T16:25:31.399Z,21.60
2022-09-27T16:28:04.157Z,20.20
2022-09-27T16:30:33.599Z,21.40
2022-09-27T16:33:01.836Z,20.60
2022-09-27T16:35:30.216Z,21.00
2022-09-27T16:37:58.899Z,19.80
2022-09-27T16:40:28.431Z,24.00
2022-09-27T16:42:56.783Z,19.50
2022-09-27T16:45:32.881Z,20.70
2022-09-27T16:48:01.573Z,21.00
2022-09-27T16:50:49.672Z,21.80
2022-09-27T16:53:18.255Z,20.20
2022-09-27T16:55:47.039Z,20.70
2022-09-27T16:58:15.418Z,21.60
2022-09-27T17:00:44.586Z,21.80
2022-09-27T17:03:13.520Z,20.30
2022-09-27T17:05:41.885Z,22.90
2022-09-27T17:08:10.368Z,20.50
2022-09-27T17:10:44.191Z,23.40
2022-09-27T17:13:13.719Z,21.80
2022-09-27T17:15:42.203Z,24.70
2022-09-27T17:18:13.097Z,21.90
2022-09-27T17:20:41.994Z,25.70
2022-09-27T17:23:11.084Z,19.60
2022-09-27T17:25:39.565Z,20.80
2022-09-27T17:28:08.052Z,20.70
2022-09-27T17:30:36.644Z,20.30
2022-09-27T17:33:05.727Z,22.00
2022-09-27T17:35:34.201Z,24.20
2022-09-27T17:38:02.766Z,21.10
2022-09-27T17:40:31.998Z,23.10
2022-09-27T17:43:00.379Z,21.80
2022-09-27T17:45:29.250Z,23.00
2022-09-27T17:48:20.877Z,22.60
2022-09-27T17:50:49.462Z,23.10
2022-09-27T17:53:18.142Z,21.90
2022-09-27T17:55:47.034Z,25.70
2022-09-27T17:58:15.617Z,23.20
2022-09-27T18:00:44.097Z,24.40
2022-09-27T18:03:12.682Z,24.80
2022-09-27T18:05:41.473Z,27.70
2022-09-27T18:08:10.055Z,23.40
2022-09-27T18:10:40.082Z,24.30
2022-09-27T18:13:08.654Z,27.50
2022-09-27T18:15:37.547Z,29.20
2022-09-27T18:18:06.473Z,27.70
2022-09-27T18:20:37.170Z,29.50
2022-09-27T18:23:05.547Z,25.60
2022-09-27T18:25:41.094Z,27.80
2022-09-27T18:28:11.825Z,30.20
2022-09-27T18:30:40.527Z,29.40
2022-09-27T18:33:09.101Z,28.50
2022-09-27T18:35:38.003Z,25.70
2022-09-27T18:38:06.383Z,29.30
2022-09-27T18:40:55.277Z,26.10
2022-09-27T18:43:26.058Z,27.40
2022-09-27T18:45:54.449Z,27.30
2022-09-27T18:48:22.812Z,26.80
2022-09-27T18:50:51.504Z,25.80
2022-09-27T18:53:19.849Z,25.30
2022-09-27T18:55:48.569Z,29.60
2022-09-27T18:58:17.867Z,29.60
2022-09-27T19:00:47.204Z,24.20
2022-09-27T19:03:16.500Z,31.50
2022-09-27T19:05:54.323Z,26.70
2022-09-27T19:08:26.652Z,28.30
2022-09-27T19:10:55.702Z,26.80
2022-09-27T19:13:28.886Z,25.50
2022-09-27T19:16:01.309Z,28.80
2022-09-27T19:18:30.256Z,28.30
2022-09-27T19:21:10.782Z,29.10
2022-09-27T19:23:40.148Z,28.90
2022-09-27T19:26:11.914Z,27.30
2022-09-27T19:28:42.889Z,25.50
2022-09-27T19:31:17.174Z,28.30
2022-09-27T19:33:46.081Z,26.10
2022-09-27T19:36:17.494Z,27.40
2022-09-27T19:38:46.806Z,26.80
2022-09-27T19:41:16.727Z,25.80
2022-09-27T19:43:51.511Z,28.90
2022-09-27T19:46:21.780Z,26.40
2022-09-27T19:48:51.423Z,26.40
2022-09-27T19:51:22.321Z,28.60
2022-09-27T19:53:52.252Z,29.20
2022-09-27T19:56:21.631Z,27.20
2022-09-27T19:58:50.429Z,27.10
2022-09-27T20:01:22.515Z,27.40
2022-09-27T20:03:52.929Z,28.60
2022-09-27T20:06:22.376Z,32.00
2022-09-27T20:08:52.492Z,28.50
2022-09-27T20:11:23.686Z,29.60
2022-09-27T20:13:53.093Z,25.30
2022-09-27T20:16:24.119Z,28.10
2022-09-27T20:18:55.068Z,26.70
